Time;durP1;ratioP1;P1;durP2;ratioP2;P2;SDS_P1;SDS_P2;PMS_P1;PMS_P2;Temp;Humidity;BMP_temperature;BMP_pressure;BME280_temperature;BME280_humidity;BME280_pressure;Samples;Min_cycle;Max_cycle;Signal;HPM_P1;HPM_P2
2022/02/17 00:02:18;;;;;;;4.15;1.80;;;;;;;;;;5087689;28;20500;-71
2022/02/17 00:04:45;;;;;;;12.52;2.05;;;;;;;;;;5079733;28;20028;-71
2022/02/17 00:07:11;;;;;;;9.38;2.13;;;;;;;;;;5067113;28;20085;-71
2022/02/17 00:09:38;;;;;;;10.02;3.28;;;;;;;;;;5069487;28;20463;-71
2022/02/17 00:12:06;;;;;;;10.80;3.22;;;;;;;;;;5072657;28;20024;-71
2022/02/17 00:14:33;;;;;;;5.53;2.03;;;;;;;;;;5077203;28;20055;-71
2022/02/17 00:16:59;;;;;;;5.13;1.77;;;;;;;;;;5092612;28;20016;-71
2022/02/17 00:19:26;;;;;;;4.45;1.88;;;;;;;;;;5092840;28;20047;-71
2022/02/17 00:21:53;;;;;;;7.70;2.17;;;;;;;;;;5089918;28;20106;-71
2022/02/17 00:24:20;;;;;;;6.78;1.83;;;;;;;;;;5086657;28;20031;-71
2022/02/17 00:26:47;;;;;;;3.40;1.70;;;;;;;;;;5084957;28;20024;-71
2022/02/17 00:29:14;;;;;;;3.70;1.65;;;;;;;;;;5087306;28;20020;-71
2022/02/17 00:31:41;;;;;;;4.47;1.50;;;;;;;;;;5089073;28;20077;-71
2022/02/17 00:34:08;;;;;;;3.90;1.50;;;;;;;;;;5092799;28;20500;-71
2022/02/17 00:36:35;;;;;;;6.03;1.58;;;;;;;;;;5092740;28;20020;-71
2022/02/17 00:39:02;;;;;;;3.83;1.63;;;;;;;;;;5082293;28;20137;-71
2022/02/17 00:41:28;;;;;;;5.75;1.52;;;;;;;;;;5071839;28;20475;-71
2022/02/17 00:43:55;;;;;;;7.57;2.50;;;;;;;;;;5070238;28;20113;-71
2022/02/17 00:46:22;;;;;;;8.82;2.22;;;;;;;;;;5066798;28;20820;-71
2022/02/17 00:48:48;;;;;;;3.45;1.70;;;;;;;;;;5066827;28;20123;-71
2022/02/17 00:51:16;;;;;;;3.05;1.60;;;;;;;;;;5077529;28;20028;-71
2022/02/17 00:53:42;;;;;;;6.55;2.78;;;;;;;;;;5087845;28;20386;-71
2022/02/17 00:56:09;;;;;;;3.72;1.85;;;;;;;;;;5092314;28;20031;-71
2022/02/17 00:58:36;;;;;;;3.00;1.10;;;;;;;;;;5083261;28;20032;-71
2022/02/17 01:01:03;;;;;;;2.17;1.15;;;;;;;;;;5072115;28;20021;-71
2022/02/17 01:03:29;;;;;;;8.80;1.50;;;;;;;;;;5072824;28;20032;-72
2022/02/17 01:05:56;;;;;;;4.87;1.63;;;;;;;;;;5071016;28;20036;-71
2022/02/17 01:08:23;;;;;;;2.23;1.20;;;;;;;;;;5066553;28;20360;-71
2022/02/17 01:10:49;;;;;;;5.13;1.70;;;;;;;;;;5066603;28;20021;-71
2022/02/17 01:13:16;;;;;;;3.07;1.17;;;;;;;;;;5081640;28;20104;-71
2022/02/17 01:15:43;;;;;;;3.40;1.67;;;;;;;;;;5086459;28;20457;-71
2022/02/17 01:18:09;;;;;;;2.50;1.60;;;;;;;;;;5076405;28;20078;-71
2022/02/17 01:20:36;;;;;;;7.17;1.43;;;;;;;;;;5072030;28;20031;-71
2022/02/17 01:23:03;;;;;;;3.17;1.63;;;;;;;;;;5071916;28;20108;-71
2022/02/17 01:25:30;;;;;;;4.13;1.57;;;;;;;;;;5072002;28;20484;-70
2022/02/17 01:27:57;;;;;;;5.10;1.70;;;;;;;;;;5083719;28;20431;-71
2022/02/17 01:30:24;;;;;;;4.10;1.60;;;;;;;;;;5086544;28;20020;-71
2022/02/17 01:32:51;;;;;;;7.97;1.87;;;;;;;;;;5086301;28;20470;-71
2022/02/17 01:35:18;;;;;;;7.70;1.67;;;;;;;;;;5087086;28;20020;-71
2022/02/17 01:37:46;;;;;;;6.93;1.63;;;;;;;;;;5090227;28;20024;-71
2022/02/17 01:40:13;;;;;;;8.00;1.50;;;;;;;;;;5081154;28;20040;-70
2022/02/17 01:42:40;;;;;;;7.70;2.20;;;;;;;;;;5080980;28;20058;-70
2022/02/17 01:45:08;;;;;;;4.53;1.63;;;;;;;;;;5095618;28;20020;-70
2022/02/17 01:47:35;;;;;;;3.47;1.57;;;;;;;;;;5095280;28;20562;-71
2022/02/17 01:50:02;;;;;;;3.80;1.53;;;;;;;;;;5095510;28;20036;-70
2022/02/17 01:52:29;;;;;;;6.57;1.80;;;;;;;;;;5086320;28;20043;-71
2022/02/17 01:54:56;;;;;;;4.87;1.60;;;;;;;;;;5069811;28;20036;-71
2022/02/17 01:57:25;;;;;;;2.83;1.30;;;;;;;;;;5072815;28;20043;-71
2022/02/17 01:59:52;;;;;;;2.80;1.60;;;;;;;;;;5089933;28;20485;-70
2022/02/17 02:02:19;;;;;;;3.23;1.60;;;;;;;;;;5094522;28;20028;-70
2022/02/17 02:04:46;;;;;;;5.67;1.37;;;;;;;;;;5095238;28;20534;-70
2022/02/17 02:07:13;;;;;;;7.40;1.43;;;;;;;;;;5093786;28;20493;-71
2022/02/17 02:09:40;;;;;;;5.77;1.43;;;;;;;;;;5074832;28;20024;-71
2022/02/17 02:12:10;;;;;;;3.30;1.73;;;;;;;;;;5075752;28;20032;-71
2022/02/17 02:14:36;;;;;;;4.70;1.80;;;;;;;;;;5090195;28;20024;-71
2022/02/17 02:17:04;;;;;;;3.50;1.50;;;;;;;;;;5089739;28;20027;-70
2022/02/17 02:19:30;;;;;;;3.00;1.80;;;;;;;;;;5089049;28;20390;-71
2022/02/17 02:21:57;;;;;;;4.50;1.77;;;;;;;;;;5087063;28;20027;-71
2022/02/17 02:24:24;;;;;;;4.83;1.70;;;;;;;;;;5093541;28;20028;-70
2022/02/17 02:26:50;;;;;;;2.47;1.57;;;;;;;;;;5094753;28;20056;-70
2022/02/17 02:29:17;;;;;;;3.57;1.80;;;;;;;;;;5075392;28;20056;-70
2022/02/17 02:31:44;;;;;;;3.00;1.70;;;;;;;;;;5074624;28;20419;-71
2022/02/17 02:34:10;;;;;;;5.43;1.90;;;;;;;;;;5074622;28;20082;-70
2022/02/17 02:36:37;;;;;;;3.40;2.00;;;;;;;;;;5069648;28;20099;-70
2022/02/17 02:39:04;;;;;;;3.20;1.50;;;;;;;;;;5085105;28;20053;-70
2022/02/17 02:41:30;;;;;;;5.37;1.70;;;;;;;;;;5089191;28;20028;-70
2022/02/17 02:43:58;;;;;;;2.43;1.50;;;;;;;;;;5089180;28;20035;-71
2022/02/17 02:46:25;;;;;;;2.93;1.27;;;;;;;;;;5092033;28;20024;-70
2022/02/17 02:48:51;;;;;;;3.90;1.30;;;;;;;;;;5094394;28;20063;-70
2022/02/17 02:51:18;;;;;;;2.80;1.60;;;;;;;;;;5075061;28;20024;-70
2022/02/17 02:53:46;;;;;;;3.63;1.57;;;;;;;;;;5073815;28;20036;-70
2022/02/17 02:56:13;;;;;;;3.73;1.57;;;;;;;;;;5074051;28;20637;-70
2022/02/17 02:58:40;;;;;;;2.80;1.50;;;;;;;;;;5070342;28;20029;-70
2022/02/17 03:01:07;;;;;;;3.30;1.17;;;;;;;;;;5068682;28;20044;-70
2022/02/17 03:03:34;;;;;;;5.27;1.83;;;;;;;;;;5069516;28;20031;-71
2022/02/17 03:06:00;;;;;;;3.83;1.50;;;;;;;;;;5068564;28;20430;-70
2022/02/17 03:08:27;;;;;;;2.63;1.33;;;;;;;;;;5070932;28;20028;-70
2022/02/17 03:10:54;;;;;;;4.40;1.87;;;;;;;;;;5073777;28;20131;-70
2022/02/17 03:13:20;;;;;;;4.93;1.90;;;;;;;;;;5086191;28;20035;-71
2022/02/17 03:15:47;;;;;;;5.97;2.30;;;;;;;;;;5093814;28;20040;-71
2022/02/17 03:18:14;;;;;;;5.00;1.87;;;;;;;;;;5093714;28;20103;-71
2022/02/17 03:20:40;;;;;;;4.57;2.00;;;;;;;;;;5090908;28;20024;-70
2022/02/17 03:23:07;;;;;;;4.30;2.20;;;;;;;;;;5077348;28;20032;-70
2022/02/17 03:25:34;;;;;;;5.00;2.00;;;;;;;;;;5067748;28;20024;-70
2022/02/17 03:28:01;;;;;;;3.00;1.93;;;;;;;;;;5068177;28;20491;-70
2022/02/17 03:30:27;;;;;;;4.13;1.60;;;;;;;;;;5070248;28;20108;-70
2022/02/17 03:32:54;;;;;;;3.37;1.70;;;;;;;;;;5081727;28;20490;-70
2022/02/17 03:35:21;;;;;;;5.10;2.30;;;;;;;;;;5093431;28;20048;-70
2022/02/17 03:37:47;;;;;;;8.27;1.83;;;;;;;;;;5093508;28;20032;-70
2022/02/17 03:40:14;;;;;;;3.73;1.90;;;;;;;;;;5093634;28;20032;-70
2022/02/17 03:42:43;;;;;;;5.50;2.37;;;;;;;;;;5081386;28;20479;-70
2022/02/17 03:45:10;;;;;;;5.60;2.23;;;;;;;;;;5067803;28;20035;-70
2022/02/17 03:47:37;;;;;;;8.93;2.70;;;;;;;;;;5067705;28;20028;-70
2022/02/17 03:50:05;;;;;;;5.07;2.10;;;;;;;;;;5067543;28;20530;-70
2022/02/17 03:52:32;;;;;;;4.17;2.10;;;;;;;;;;5076438;28;20035;-70
2022/02/17 03:54:59;;;;;;;4.30;2.20;;;;;;;;;;5093035;28;20073;-70
2022/02/17 03:57:25;;;;;;;4.73;2.00;;;;;;;;;;5092945;28;20378;-70
2022/02/17 03:59:52;;;;;;;4.93;2.10;;;;;;;;;;5092274;28;20024;-69
2022/02/17 04:02:19;;;;;;;3.53;1.87;;;;;;;;;;5084900;28;20032;-70
2022/02/17 04:04:45;;;;;;;3.40;1.93;;;;;;;;;;5070936;28;20025;-70
2022/02/17 04:07:14;;;;;;;3.80;1.90;;;;;;;;;;5067184;28;20031;-70
2022/02/17 04:09:41;;;;;;;4.93;1.77;;;;;;;;;;5067398;28;20609;-70
2022/02/17 04:12:08;;;;;;;3.37;1.50;;;;;;;;;;5073152;28;20020;-70
2022/02/17 04:14:35;;;;;;;5.53;2.10;;;;;;;;;;5088202;28;20020;-70
2022/02/17 04:17:02;;;;;;;4.13;2.03;;;;;;;;;;5092777;28;20028;-70
2022/02/17 04:19:30;;;;;;;7.40;1.83;;;;;;;;;;5092566;28;20411;-70
2022/02/17 04:21:57;;;;;;;2.70;1.47;;;;;;;;;;5088337;28;20028;-70
2022/02/17 04:24:23;;;;;;;5.37;1.83;;;;;;;;;;5072326;28;20024;-70
2022/02/17 04:26:50;;;;;;;5.20;2.17;;;;;;;;;;5071143;28;20025;-70
2022/02/17 04:29:17;;;;;;;2.87;1.57;;;;;;;;;;5066967;28;20090;-70
2022/02/17 04:31:43;;;;;;;2.67;1.60;;;;;;;;;;5068642;28;20029;-71
2022/02/17 04:34:10;;;;;;;5.37;2.00;;;;;;;;;;5087196;28;20022;-70
2022/02/17 04:36:37;;;;;;;6.30;1.80;;;;;;;;;;5087624;28;20022;-71
2022/02/17 04:39:04;;;;;;;4.43;1.90;;;;;;;;;;5092420;28;20073;-70
2022/02/17 04:44:15;;;;;;;4.95;1.73;;;;;;;;;;5073587;28;20448;-70
2022/02/17 04:46:42;;;;;;;2.80;1.50;;;;;;;;;;5071971;28;20020;-71
2022/02/17 04:49:09;;;;;;;4.07;1.53;;;;;;;;;;5070904;28;20021;-70
2022/02/17 04:51:35;;;;;;;4.20;1.77;;;;;;;;;;5066906;28;20021;-70
2022/02/17 04:54:02;;;;;;;4.23;2.00;;;;;;;;;;5068196;28;20487;-70
2022/02/17 04:56:29;;;;;;;5.57;1.77;;;;;;;;;;5086983;28;20024;-70
2022/02/17 04:58:56;;;;;;;3.10;1.40;;;;;;;;;;5086588;28;20095;-71
2022/02/17 05:01:22;;;;;;;4.60;1.77;;;;;;;;;;5091641;28;20020;-70
2022/02/17 05:03:49;;;;;;;2.80;1.70;;;;;;;;;;5092256;28;20065;-71
2022/02/17 05:06:16;;;;;;;3.97;1.50;;;;;;;;;;5092569;28;20028;-70
2022/02/17 05:08:42;;;;;;;3.97;1.73;;;;;;;;;;5074687;28;20028;-70
2022/02/17 05:11:09;;;;;;;2.27;1.50;;;;;;;;;;5074914;28;20518;-70
2022/02/17 05:13:36;;;;;;;6.20;1.90;;;;;;;;;;5070807;28;20027;-70
2022/02/17 05:16:03;;;;;;;3.87;1.70;;;;;;;;;;5070724;28;20025;-70
2022/02/17 05:18:29;;;;;;;3.43;1.50;;;;;;;;;;5085444;28;20024;-70
2022/02/17 05:20:56;;;;;;;8.83;2.90;;;;;;;;;;5091061;28;20024;-70
2022/02/17 05:23:23;;;;;;;2.97;1.50;;;;;;;;;;5096237;28;20020;-70
2022/02/17 05:25:49;;;;;;;4.23;1.70;;;;;;;;;;5096039;28;20024;-70
2022/02/17 05:28:16;;;;;;;3.43;1.60;;;;;;;;;;5082595;28;20021;-70
2022/02/17 05:30:44;;;;;;;4.23;1.57;;;;;;;;;;5075723;28;20471;-70
2022/02/17 05:33:11;;;;;;;3.97;1.60;;;;;;;;;;5075289;28;20024;-70
2022/02/17 05:35:38;;;;;;;2.43;1.50;;;;;;;;;;5070362;28;20025;-70
2022/02/17 05:38:05;;;;;;;4.40;1.60;;;;;;;;;;5081116;28;20082;-70
2022/02/17 05:40:32;;;;;;;3.20;1.80;;;;;;;;;;5090694;28;20021;-70
2022/02/17 05:42:59;;;;;;;3.87;1.73;;;;;;;;;;5090583;28;20438;-70
2022/02/17 05:45:29;;;;;;;3.90;1.60;;;;;;;;;;5095259;28;20028;-70
2022/02/17 05:47:56;;;;;;;4.70;2.33;;;;;;;;;;5086001;28;20071;-70
2022/02/17 05:50:23;;;;;;;4.00;1.97;;;;;;;;;;5074822;28;20463;-70
2022/02/17 05:52:49;;;;;;;4.87;1.87;;;;;;;;;;5075454;28;20409;-70
2022/02/17 05:55:17;;;;;;;3.43;1.87;;;;;;;;;;5075062;28;20040;-70
2022/02/17 05:57:44;;;;;;;4.90;1.33;;;;;;;;;;5077504;28;20020;-70
2022/02/17 06:00:12;;;;;;;5.47;1.80;;;;;;;;;;5074708;28;20029;-73
2022/02/17 06:02:39;;;;;;;2.53;1.43;;;;;;;;;;5062305;28;20028;-73
2022/02/17 06:05:06;;;;;;;2.87;1.53;;;;;;;;;;5052152;28;20063;-75
2022/02/17 06:07:33;;;;;;;3.63;1.77;;;;;;;;;;5074112;28;20040;-71
2022/02/17 06:10:00;;;;;;;13.83;1.97;;;;;;;;;;5070192;28;20392;-73
2022/02/17 06:12:26;;;;;;;3.07;1.30;;;;;;;;;;5083125;28;20102;-70
2022/02/17 06:14:53;;;;;;;2.23;1.20;;;;;;;;;;5091565;28;20031;-72
2022/02/17 06:17:20;;;;;;;3.33;1.47;;;;;;;;;;5072732;28;20024;-72
2022/02/17 06:19:46;;;;;;;3.37;1.47;;;;;;;;;;5068700;28;20021;-72
2022/02/17 06:22:13;;;;;;;3.53;1.73;;;;;;;;;;5066970;28;20105;-72
2022/02/17 06:24:40;;;;;;;3.03;1.70;;;;;;;;;;5068050;28;20025;-72
2022/02/17 06:27:06;;;;;;;3.87;1.60;;;;;;;;;;5088367;28;20043;-72
2022/02/17 06:29:33;;;;;;;5.90;1.73;;;;;;;;;;5091830;28;20095;-71
2022/02/17 06:32:00;;;;;;;3.30;1.70;;;;;;;;;;5094474;28;20031;-72
2022/02/17 06:34:26;;;;;;;2.83;1.37;;;;;;;;;;5094811;28;20024;-72
2022/02/17 06:36:53;;;;;;;3.07;1.53;;;;;;;;;;5075757;28;20031;-72
2022/02/17 06:39:20;;;;;;;5.20;1.77;;;;;;;;;;5074076;28;20056;-72
2022/02/17 06:41:46;;;;;;;4.93;1.57;;;;;;;;;;5070553;28;20032;-72
2022/02/17 06:44:13;;;;;;;5.90;1.43;;;;;;;;;;5069089;28;20442;-72
2022/02/17 06:46:40;;;;;;;2.30;1.43;;;;;;;;;;5084797;28;20125;-71
2022/02/17 06:49:07;;;;;;;3.20;1.40;;;;;;;;;;5089140;28;20478;-72
2022/02/17 06:51:33;;;;;;;2.23;0.90;;;;;;;;;;5091942;28;20024;-71
2022/02/17 06:54:00;;;;;;;2.63;1.40;;;;;;;;;;5094184;28;20094;-72
2022/02/17 06:56:27;;;;;;;2.40;1.30;;;;;;;;;;5079581;28;20344;-72
2022/02/17 06:58:53;;;;;;;2.93;1.40;;;;;;;;;;5074090;28;20027;-71
2022/02/17 07:01:23;;;;;;;2.97;1.50;;;;;;;;;;5074061;28;20029;-72
2022/02/17 07:03:51;;;;;;;3.07;1.67;;;;;;;;;;5070599;28;20020;-71
2022/02/17 07:06:17;;;;;;;2.80;1.10;;;;;;;;;;5081406;28;20111;-71
2022/02/17 07:08:44;;;;;;;3.53;1.50;;;;;;;;;;5088675;28;20111;-72
2022/02/17 07:11:11;;;;;;;3.23;1.40;;;;;;;;;;5088682;28;20024;-72
2022/02/17 07:13:37;;;;;;;2.63;1.33;;;;;;;;;;5091307;28;20024;-71
2022/02/17 07:16:04;;;;;;;3.13;1.70;;;;;;;;;;5093955;28;20047;-72
2022/02/17 07:18:31;;;;;;;4.87;1.47;;;;;;;;;;5081145;28;20064;-73
2022/02/17 07:20:58;;;;;;;3.70;1.70;;;;;;;;;;5073570;28;20037;-72
2022/02/17 07:23:26;;;;;;;2.97;1.60;;;;;;;;;;5073600;28;20024;-71
2022/02/17 07:25:53;;;;;;;3.37;1.33;;;;;;;;;;5070590;28;20021;-71
2022/02/17 07:28:22;;;;;;;3.20;1.40;;;;;;;;;;5068068;28;20543;-71
2022/02/17 07:30:50;;;;;;;3.07;1.70;;;;;;;;;;5084161;28;20147;-71
2022/02/17 07:33:17;;;;;;;3.70;1.50;;;;;;;;;;5088363;28;20028;-72
2022/02/17 07:35:44;;;;;;;4.07;2.00;;;;;;;;;;5090918;28;20043;-72
2022/02/17 07:38:12;;;;;;;3.70;1.50;;;;;;;;;;5093681;28;20401;-71
2022/02/17 07:40:40;;;;;;;3.23;1.73;;;;;;;;;;5078487;28;20077;-71
2022/02/17 07:43:07;;;;;;;3.40;1.70;;;;;;;;;;5073064;28;20106;-72
2022/02/17 07:45:34;;;;;;;4.63;1.70;;;;;;;;;;5073036;28;20016;-71
2022/02/17 07:48:01;;;;;;;3.90;1.80;;;;;;;;;;5070185;28;20036;-71
2022/02/17 07:50:27;;;;;;;2.90;1.57;;;;;;;;;;5080355;28;20032;-72
2022/02/17 07:52:54;;;;;;;3.33;1.50;;;;;;;;;;5088117;28;20031;-71
2022/02/17 07:55:21;;;;;;;4.73;1.77;;;;;;;;;;5088020;28;20046;-71
2022/02/17 07:57:47;;;;;;;3.07;1.50;;;;;;;;;;5080889;28;20079;-71
2022/02/17 08:00:14;;;;;;;5.03;1.50;;;;;;;;;;5072907;28;20048;-71
2022/02/17 08:02:42;;;;;;;4.10;1.67;;;;;;;;;;5072350;28;20070;-71
2022/02/17 08:05:09;;;;;;;2.70;1.43;;;;;;;;;;5072667;28;20032;-71
2022/02/17 08:07:38;;;;;;;2.27;1.07;;;;;;;;;;5078776;28;20032;-71
2022/02/17 08:10:05;;;;;;;3.37;1.30;;;;;;;;;;5090697;28;20028;-72
2022/02/17 08:12:32;;;;;;;3.60;1.50;;;;;;;;;;5087679;28;20471;-71
2022/02/17 08:14:58;;;;;;;3.60;1.50;;;;;;;;;;5087546;28;20020;-72
2022/02/17 08:17:25;;;;;;;5.43;1.60;;;;;;;;;;5082701;28;20064;-71
2022/02/17 08:19:52;;;;;;;2.93;1.77;;;;;;;;;;5068958;28;20095;-71
2022/02/17 08:22:18;;;;;;;3.87;1.90;;;;;;;;;;5072409;28;20062;-72
2022/02/17 08:24:45;;;;;;;3.23;1.53;;;;;;;;;;5072676;28;20429;-71
2022/02/17 08:27:12;;;;;;;6.63;2.30;;;;;;;;;;5074724;28;20040;-71
2022/02/17 08:29:39;;;;;;;5.43;3.00;;;;;;;;;;5092201;28;20458;-71
2022/02/17 08:32:06;;;;;;;4.17;2.10;;;;;;;;;;5090856;28;20073;-71
2022/02/17 08:34:32;;;;;;;3.73;1.53;;;;;;;;;;5087319;28;20081;-71
2022/02/17 08:36:59;;;;;;;4.43;2.47;;;;;;;;;;5086391;28;20028;-71
2022/02/17 08:39:26;;;;;;;4.80;2.50;;;;;;;;;;5067070;28;20024;-72
2022/02/17 08:41:52;;;;;;;4.73;2.53;;;;;;;;;;5070013;28;20109;-71
2022/02/17 08:44:19;;;;;;;8.17;2.57;;;;;;;;;;5092025;28;20020;-71
2022/02/17 08:46:47;;;;;;;5.77;2.20;;;;;;;;;;5092075;28;20076;-71
2022/02/17 08:49:14;;;;;;;5.37;2.60;;;;;;;;;;5092435;28;20502;-72
2022/02/17 08:51:40;;;;;;;7.17;2.10;;;;;;;;;;5092412;28;20466;-71
2022/02/17 08:54:07;;;;;;;3.00;1.50;;;;;;;;;;5071137;28;20028;-71
2022/02/17 08:56:34;;;;;;;2.73;1.40;;;;;;;;;;5066630;28;20036;-71
2022/02/17 08:59:01;;;;;;;4.13;1.60;;;;;;;;;;5066979;28;20024;-71
2022/02/17 09:01:27;;;;;;;4.10;1.47;;;;;;;;;;5066738;28;21644;-71
2022/02/17 09:03:54;;;;;;;4.50;1.60;;;;;;;;;;5084800;28;20034;-72
2022/02/17 09:06:20;;;;;;;2.53;1.20;;;;;;;;;;5092364;28;20086;-71
2022/02/17 09:08:47;;;;;;;3.00;1.57;;;;;;;;;;5092151;28;20052;-71
2022/02/17 09:11:15;;;;;;;4.50;1.60;;;;;;;;;;5092299;28;20018;-71
2022/02/17 09:13:41;;;;;;;3.97;1.50;;;;;;;;;;5075791;28;20067;-71
2022/02/17 09:16:09;;;;;;;2.30;1.30;;;;;;;;;;5071044;28;20017;-72
2022/02/17 09:18:36;;;;;;;1.80;1.10;;;;;;;;;;5066363;28;20046;-71
2022/02/17 09:21:03;;;;;;;4.60;1.67;;;;;;;;;;5066809;28;20497;-72
2022/02/17 09:23:30;;;;;;;3.20;1.50;;;;;;;;;;5080354;28;20085;-71
2022/02/17 09:25:56;;;;;;;3.13;1.37;;;;;;;;;;5086996;28;20370;-71
2022/02/17 09:28:23;;;;;;;5.93;1.30;;;;;;;;;;5092019;28;20055;-71
2022/02/17 09:30:50;;;;;;;2.23;1.17;;;;;;;;;;5091989;28;20024;-71
2022/02/17 09:33:17;;;;;;;2.53;1.33;;;;;;;;;;5079796;28;20021;-71
2022/02/17 09:35:43;;;;;;;2.30;1.30;;;;;;;;;;5071704;28;20077;-71
2022/02/17 09:38:13;;;;;;;2.33;1.03;;;;;;;;;;5071420;28;20025;-71
2022/02/17 09:40:42;;;;;;;3.07;1.43;;;;;;;;;;5066419;28;20021;-71
2022/02/17 09:43:09;;;;;;;2.77;1.60;;;;;;;;;;5076925;28;20043;-71
2022/02/17 09:45:39;;;;;;;2.53;1.20;;;;;;;;;;5086588;28;20027;-72
2022/02/17 09:48:08;;;;;;;3.40;1.33;;;;;;;;;;5086209;28;20028;-72
2022/02/17 09:50:35;;;;;;;4.27;1.50;;;;;;;;;;5091944;28;20023;-71
2022/02/17 09:53:02;;;;;;;4.13;1.40;;;;;;;;;;5083413;28;20031;-71
2022/02/17 09:55:29;;;;;;;3.07;1.07;;;;;;;;;;5071766;28;20028;-71
2022/02/17 09:57:56;;;;;;;4.27;1.53;;;;;;;;;;5074668;28;20017;-71
2022/02/17 10:00:23;;;;;;;3.97;1.70;;;;;;;;;;5074919;28;20414;-71
2022/02/17 10:02:49;;;;;;;4.40;1.70;;;;;;;;;;5076546;28;20020;-71
2022/02/17 10:05:16;;;;;;;2.73;1.43;;;;;;;;;;5089867;28;20452;-71
2022/02/17 10:07:45;;;;;;;2.37;1.57;;;;;;;;;;5089972;28;20044;-72
2022/02/17 10:10:22;;;;;;;2.23;1.40;;;;;;;;;;5088660;28;20374;-71
2022/02/17 10:12:51;;;;;;;2.40;1.20;;;;;;;;;;5088240;28;20012;-71
2022/02/17 10:15:28;;;;;;;2.17;0.97;;;;;;;;;;5074871;28;20024;-71
2022/02/17 10:18:04;;;;;;;2.03;1.13;;;;;;;;;;5074918;28;20016;-71
2022/02/17 10:20:51;;;;;;;3.47;1.63;;;;;;;;;;5074874;28;20048;-71
2022/02/17 10:23:17;;;;;;;4.87;1.17;;;;;;;;;;5082486;28;20016;-71
2022/02/17 10:25:59;;;;;;;3.10;1.30;;;;;;;;;;5089561;28;20167;-71
2022/02/17 10:28:26;;;;;;;3.97;1.70;;;;;;;;;;5089658;28;20043;-71
2022/02/17 10:30:53;;;;;;;5.60;1.43;;;;;;;;;;5089640;28;20024;-70
2022/02/17 10:33:20;;;;;;;2.67;1.50;;;;;;;;;;5080270;28;20055;-71
2022/02/17 10:35:54;;;;;;;3.40;1.20;;;;;;;;;;5074514;28;20082;-71
2022/02/17 10:38:21;;;;;;;2.60;1.67;;;;;;;;;;5074384;28;20103;-71
2022/02/17 10:40:52;;;;;;;2.40;1.50;;;;;;;;;;5074437;28;20086;-71
2022/02/17 10:43:19;;;;;;;3.30;1.43;;;;;;;;;;5084358;28;20027;-71
2022/02/17 10:45:48;;;;;;;3.37;1.50;;;;;;;;;;5092061;28;20030;-71
2022/02/17 10:48:26;;;;;;;3.53;1.23;;;;;;;;;;5089165;28;20093;-71
2022/02/17 10:51:05;;;;;;;3.07;1.50;;;;;;;;;;5089190;28;20058;-72
2022/02/17 10:53:35;;;;;;;2.07;1.20;;;;;;;;;;5077059;28;20039;-71
2022/02/17 10:56:04;;;;;;;6.70;1.20;;;;;;;;;;5071466;28;20028;-71
2022/02/17 10:58:31;;;;;;;3.17;1.37;;;;;;;;;;5073880;28;20024;-71
2022/02/17 11:00:59;;;;;;;2.20;1.20;;;;;;;;;;5074291;28;20025;-71
2022/02/17 11:03:26;;;;;;;2.17;1.20;;;;;;;;;;5084614;28;20264;-71
2022/02/17 11:05:54;;;;;;;2.23;1.17;;;;;;;;;;5094377;28;20479;-71
2022/02/17 11:08:21;;;;;;;3.37;1.67;;;;;;;;;;5090710;28;20787;-71
2022/02/17 11:10:48;;;;;;;2.80;1.43;;;;;;;;;;5088942;28;20028;-71
2022/02/17 11:13:25;;;;;;;3.43;1.40;;;;;;;;;;5079374;28;20033;-71
2022/02/17 11:15:53;;;;;;;4.37;1.70;;;;;;;;;;5068631;28;20020;-71
2022/02/17 11:18:20;;;;;;;2.30;1.20;;;;;;;;;;5071335;28;20245;-71
2022/02/17 11:20:48;;;;;;;3.10;1.43;;;;;;;;;;5073689;28;20483;-71
2022/02/17 11:23:19;;;;;;;2.20;1.30;;;;;;;;;;5082264;28;20253;-71
2022/02/17 11:25:46;;;;;;;3.57;1.47;;;;;;;;;;5093650;28;20310;-71
2022/02/17 11:28:14;;;;;;;4.43;1.80;;;;;;;;;;5093737;28;20032;-71
2022/02/17 11:30:42;;;;;;;2.80;1.53;;;;;;;;;;5090394;28;20253;-71
2022/02/17 11:33:14;;;;;;;3.03;1.60;;;;;;;;;;5080350;28;20020;-71
2022/02/17 11:35:41;;;;;;;6.07;1.90;;;;;;;;;;5068153;28;20288;-72
2022/02/17 11:38:28;;;;;;;4.67;1.23;;;;;;;;;;5068063;28;20303;-71
2022/02/17 11:41:15;;;;;;;3.63;1.60;;;;;;;;;;5071646;28;20648;-71
2022/02/17 11:43:42;;;;;;;3.03;1.50;;;;;;;;;;5073296;28;20280;-71
2022/02/17 11:46:10;;;;;;;4.37;2.03;;;;;;;;;;5087075;28;20296;-70
2022/02/17 11:48:38;;;;;;;7.60;1.80;;;;;;;;;;5093055;28;20283;-71
2022/02/17 11:51:17;;;;;;;3.43;1.83;;;;;;;;;;5093285;28;20260;-71
2022/02/17 11:53:47;;;;;;;3.53;1.70;;;;;;;;;;5087868;28;20310;-71
2022/02/17 11:56:14;;;;;;;4.93;1.80;;;;;;;;;;5087159;28;20260;-71
2022/02/17 11:58:56;;;;;;;6.30;1.93;;;;;;;;;;5067356;28;20253;-71
2022/02/17 12:01:26;;;;;;;7.03;2.57;;;;;;;;;;5067411;28;20262;-71
2022/02/17 12:03:58;;;;;;;6.27;2.10;;;;;;;;;;5072645;28;20250;-71
2022/02/17 12:06:32;;;;;;;5.67;2.37;;;;;;;;;;5072848;28;20793;-71
2022/02/17 12:08:59;;;;;;;4.13;2.40;;;;;;;;;;5076837;28;20287;-71
2022/02/17 12:11:31;;;;;;;7.13;2.50;;;;;;;;;;5093053;28;20322;-71
2022/02/17 12:14:04;;;;;;;9.30;2.80;;;;;;;;;;5091963;28;20256;-71
2022/02/17 12:16:41;;;;;;;4.03;2.10;;;;;;;;;;5087485;28;20268;-70
2022/02/17 12:19:17;;;;;;;5.70;2.63;;;;;;;;;;5086715;28;20595;-71
2022/02/17 12:21:45;;;;;;;5.00;2.60;;;;;;;;;;5076936;28;20284;-71
2022/02/17 12:24:13;;;;;;;8.37;2.60;;;;;;;;;;5068429;28;20268;-71
2022/02/17 12:26:54;;;;;;;6.23;2.43;;;;;;;;;;5072504;28;20262;-71
2022/02/17 12:29:21;;;;;;;4.43;2.10;;;;;;;;;;5072037;28;20759;-71
2022/02/17 12:31:48;;;;;;;6.13;2.27;;;;;;;;;;5072495;28;20319;-71
2022/02/17 12:34:15;;;;;;;4.00;1.87;;;;;;;;;;5083902;28;20261;-71
2022/02/17 12:36:42;;;;;;;7.30;2.17;;;;;;;;;;5090446;28;20326;-71
2022/02/17 12:39:09;;;;;;;4.83;2.57;;;;;;;;;;5087161;28;20275;-70
2022/02/17 12:41:36;;;;;;;7.20;2.10;;;;;;;;;;5087208;28;20350;-71
2022/02/17 12:44:06;;;;;;;7.87;3.20;;;;;;;;;;5086931;28;20306;-71
2022/02/17 12:46:32;;;;;;;6.73;2.90;;;;;;;;;;5072123;28;20308;-71
2022/02/17 12:49:08;;;;;;;6.47;2.73;;;;;;;;;;5076706;28;20288;-71
2022/02/17 12:51:37;;;;;;;6.90;3.20;;;;;;;;;;5092389;28;20804;-70
2022/02/17 12:54:04;;;;;;;5.00;2.63;;;;;;;;;;5092531;28;20265;-71
2022/02/17 12:56:33;;;;;;;5.60;2.47;;;;;;;;;;5091765;28;20272;-71
2022/02/17 12:59:04;;;;;;;6.10;2.40;;;;;;;;;;5085567;28;20360;-71
2022/02/17 13:01:31;;;;;;;5.43;2.87;;;;;;;;;;5067016;28;20732;-71
2022/02/17 13:03:58;;;;;;;5.00;2.27;;;;;;;;;;5066760;28;20783;-71
2022/02/17 13:06:26;;;;;;;6.30;2.50;;;;;;;;;;5067084;28;20307;-70
2022/02/17 13:08:54;;;;;;;4.50;1.93;;;;;;;;;;5069374;28;20292;-70
2022/02/17 13:11:23;;;;;;;4.77;2.23;;;;;;;;;;5071528;28;20341;-71
2022/02/17 13:13:49;;;;;;;7.23;4.03;;;;;;;;;;5072164;28;20257;-70
2022/02/17 13:16:18;;;;;;;5.83;2.97;;;;;;;;;;5071966;28;20267;-70
2022/02/17 13:18:45;;;;;;;6.97;2.70;;;;;;;;;;5082960;28;20303;-70
2022/02/17 13:21:13;;;;;;;8.03;2.70;;;;;;;;;;5089916;28;20257;-72
2022/02/17 13:23:40;;;;;;;6.40;2.37;;;;;;;;;;5075136;28;20356;-71
2022/02/17 13:26:26;;;;;;;5.77;2.77;;;;;;;;;;5066585;28;20304;-70
2022/02/17 13:28:53;;;;;;;11.50;3.20;;;;;;;;;;5065068;28;20880;-71
2022/02/17 13:31:21;;;;;;;7.17;3.27;;;;;;;;;;5081323;28;20273;-70
2022/02/17 13:33:48;;;;;;;7.90;3.10;;;;;;;;;;5096154;28;20249;-70
2022/02/17 13:36:29;;;;;;;9.40;4.23;;;;;;;;;;5095759;28;20279;-70
2022/02/17 13:39:08;;;;;;;10.40;4.17;;;;;;;;;;5095794;28;20780;-70
2022/02/17 13:41:35;;;;;;;9.53;3.97;;;;;;;;;;5083259;28;20279;-70
2022/02/17 13:44:02;;;;;;;7.57;3.97;;;;;;;;;;5071813;28;20257;-71
2022/02/17 13:46:29;;;;;;;14.13;4.10;;;;;;;;;;5069494;28;20279;-71
2022/02/17 13:48:56;;;;;;;7.60;4.13;;;;;;;;;;5069993;28;20673;-71
2022/02/17 13:51:23;;;;;;;9.73;3.70;;;;;;;;;;5069932;28;20743;-70
2022/02/17 13:53:51;;;;;;;7.67;4.23;;;;;;;;;;5085428;28;20260;-71
2022/02/17 13:56:23;;;;;;;7.70;3.20;;;;;;;;;;5095627;28;20259;-71
2022/02/17 13:58:58;;;;;;;7.93;3.63;;;;;;;;;;5095277;28;20394;-71
2022/02/17 14:01:24;;;;;;;;;;;;;;;;;;5095900;28;20050;-71
2022/02/17 14:03:51;;;;;;;6.40;3.63;;;;;;;;;;5095301;28;19930;-71
2022/02/17 14:06:19;;;;;;;10.30;3.83;;;;;;;;;;5072881;28;20025;-71
2022/02/17 14:08:47;;;;;;;7.77;3.20;;;;;;;;;;5069584;28;20028;-71
2022/02/17 14:11:14;;;;;;;15.03;3.57;;;;;;;;;;5069561;28;20028;-71
2022/02/17 14:13:41;;;;;;;10.97;3.63;;;;;;;;;;5069219;28;20040;-71
2022/02/17 14:16:08;;;;;;;7.90;3.50;;;;;;;;;;5072696;28;20149;-72
2022/02/17 14:18:35;;;;;;;9.00;4.20;;;;;;;;;;5094620;28;20059;-72
2022/02/17 14:21:02;;;;;;;6.77;3.27;;;;;;;;;;5095032;28;20027;-71
2022/02/17 14:23:30;;;;;;;14.20;4.00;;;;;;;;;;5095026;28;20146;-71
2022/02/17 14:25:57;;;;;;;9.73;3.40;;;;;;;;;;5094986;28;20020;-72
2022/02/17 14:28:23;;;;;;;7.83;3.70;;;;;;;;;;5091079;28;20028;-73
2022/02/17 14:30:51;;;;;;;8.13;4.27;;;;;;;;;;5070022;28;20483;-72
2022/02/17 14:33:19;;;;;;;13.60;4.53;;;;;;;;;;5068967;28;20028;-73
2022/02/17 14:35:47;;;;;;;10.43;3.80;;;;;;;;;;5069187;28;20025;-72
2022/02/17 14:38:14;;;;;;;9.00;3.90;;;;;;;;;;5071816;28;20027;-72
2022/02/17 14:40:42;;;;;;;9.53;3.90;;;;;;;;;;5075612;28;20040;-72
2022/02/17 14:43:09;;;;;;;11.80;4.33;;;;;;;;;;5093895;28;20020;-72
2022/02/17 14:45:36;;;;;;;6.53;3.30;;;;;;;;;;5094830;28;20066;-72
2022/02/17 14:48:04;;;;;;;11.70;4.77;;;;;;;;;;5094546;28;20039;-72
2022/02/17 14:50:30;;;;;;;9.00;3.43;;;;;;;;;;5091129;28;20032;-73